Terminal Aerodrome Forecast
Issued by NWS

Home | Current Version | Previous Version | Text Only | Print | Product List | Glossary On
Versions: 1 2 3 4 5 6 7 8 9 10 11 12 13 14 15 16 17 18 19 20
000
FTUS43 KDVN 060206 AAA
TAFBRL
TAF AMD
KBRL 060206Z 0602/0624 12012G20KT P6SM OVC007
     FM060400 14011KT 4SM BR OVC004
     FM060700 14006KT 1/4SM FG OVC001
     FM061200 26007KT 1SM BR OVC004
     FM061600 29012G20KT 6SM BR BKN050=

USA.gov is the U.S. government's official web portal to all federal, state and local government web resources and services.